Archival Weather

Salzburg

Salzburg, Austria (LOWS)

Report from: Thursday, September 21, 2023 1:20 PM CEST
Current time: Saturday, February 24, 2024 4:10 PM CET

Current weather – Weather history – Daily summaries
Weather forecast

Temperature27.0°C (80.6°F)
Heat index27.3°C (81.1°F)
Dew point13.0°C (55.4°F)
Winds 2 kts (1 m/s, 2.3 mph) Vrb
Winds variableWinds variable
Visibility6.2 mi. (10 km)
Clouds Few clouds 6,000 ft. (1,829 m)
Altimeter29.65 in.Hg (1004 mB)
Relative humidity42 %
Density altitude1,905 ft. (581 m)
Remarks No significant changes expected in the next two hours
Flight conditions Visual Meteorological Conditions
Raw dataLOWS 211120Z VRB02KT 9999 FEW060 27/13 Q1004 NOSIG
An error has occurred. This application may no longer respond until reloaded. Reload 🗙